Terminal Aerodrome Forecast
Issued by NWS

Home | Current Version | Previous Version | Graphics & Text | Print | Product List | Glossary On
Versions: 1 2 3 4 5 6 7 8 9 10 11 12 13 14 15 16
461
FTUS43 KFGF 211136
TAFBJI
TAF
KBJI 211136Z 2112/2212 01006KT P6SM OVC008
      TEMPO 2112/2114 2SM -DZ BR OVC004
     FM211400 35007KT P6SM VCSH OVC008
     FM212000 31009KT P6SM VCSH OVC010
     FM212100 31010KT P6SM OVC015
     FM220600 29007KT P6SM OVC020=

USA.gov is the U.S. government's official web portal to all federal, state and local government web resources and services.